sensor_id;sensor_type;location;lat;lon;timestamp;P1;durP1;ratioP1;P2;durP2;ratioP2
75427;SDS011;64008;55.612;37.698;2023-03-01T00:00:39;2.47;;;0.38;;
75427;SDS011;64008;55.612;37.698;2023-03-01T00:03:05;2.70;;;0.70;;
75427;SDS011;64008;55.612;37.698;2023-03-01T00:05:31;2.40;;;0.40;;
75427;SDS011;64008;55.612;37.698;2023-03-01T00:07:57;1.85;;;0.47;;
75427;SDS011;64008;55.612;37.698;2023-03-01T00:10:22;2.08;;;0.32;;
75427;SDS011;64008;55.612;37.698;2023-03-01T00:12:48;3.10;;;0.40;;
75427;SDS011;64008;55.612;37.698;2023-03-01T00:15:13;1.63;;;0.50;;
75427;SDS011;64008;55.612;37.698;2023-03-01T00:17:39;1.85;;;0.45;;
75427;SDS011;64008;55.612;37.698;2023-03-01T00:20:05;2.83;;;0.28;;
75427;SDS011;64008;55.612;37.698;2023-03-01T00:22:35;3.15;;;0.90;;
75427;SDS011;64008;55.612;37.698;2023-03-01T00:25:01;1.27;;;0.30;;
75427;SDS011;64008;55.612;37.698;2023-03-01T00:27:27;1.20;;;0.35;;
75427;SDS011;64008;55.612;37.698;2023-03-01T00:29:52;2.25;;;0.45;;
75427;SDS011;64008;55.612;37.698;2023-03-01T00:32:17;2.45;;;0.40;;
75427;SDS011;64008;55.612;37.698;2023-03-01T00:34:43;1.05;;;0.45;;
75427;SDS011;64008;55.612;37.698;2023-03-01T00:37:19;2.33;;;0.35;;
75427;SDS011;64008;55.612;37.698;2023-03-01T00:39:47;1.73;;;0.40;;
75427;SDS011;64008;55.612;37.698;2023-03-01T00:42:13;2.60;;;0.30;;
75427;SDS011;64008;55.612;37.698;2023-03-01T00:44:39;2.05;;;0.45;;
75427;SDS011;64008;55.612;37.698;2023-03-01T00:47:04;5.75;;;0.90;;
75427;SDS011;64008;55.612;37.698;2023-03-01T00:49:30;4.97;;;1.33;;
75427;SDS011;64008;55.612;37.698;2023-03-01T00:51:55;6.78;;;0.60;;
75427;SDS011;64008;55.612;37.698;2023-03-01T00:54:21;1.83;;;0.30;;
75427;SDS011;64008;55.612;37.698;2023-03-01T00:56:47;1.75;;;0.32;;
75427;SDS011;64008;55.612;37.698;2023-03-01T00:59:12;2.45;;;0.50;;
75427;SDS011;64008;55.612;37.698;2023-03-01T01:01:38;2.50;;;0.38;;
75427;SDS011;64008;55.612;37.698;2023-03-01T01:04:05;2.58;;;0.30;;
75427;SDS011;64008;55.612;37.698;2023-03-01T01:06:36;2.67;;;0.50;;
75427;SDS011;64008;55.612;37.698;2023-03-01T01:09:05;2.80;;;0.40;;
75427;SDS011;64008;55.612;37.698;2023-03-01T01:11:31;2.58;;;0.60;;
75427;SDS011;64008;55.612;37.698;2023-03-01T01:13:58;3.10;;;0.35;;
75427;SDS011;64008;55.612;37.698;2023-03-01T01:18:50;2.58;;;0.60;;
75427;SDS011;64008;55.612;37.698;2023-03-01T01:21:18;1.23;;;0.20;;
75427;SDS011;64008;55.612;37.698;2023-03-01T01:23:45;1.35;;;0.28;;
75427;SDS011;64008;55.612;37.698;2023-03-01T01:26:15;2.03;;;0.60;;
75427;SDS011;64008;55.612;37.698;2023-03-01T01:28:43;1.27;;;0.30;;
75427;SDS011;64008;55.612;37.698;2023-03-01T01:31:09;2.33;;;0.40;;
75427;SDS011;64008;55.612;37.698;2023-03-01T01:33:34;2.28;;;0.80;;
75427;SDS011;64008;55.612;37.698;2023-03-01T01:36:00;2.35;;;0.50;;
75427;SDS011;64008;55.612;37.698;2023-03-01T01:38:26;1.70;;;0.20;;
75427;SDS011;64008;55.612;37.698;2023-03-01T01:40:51;1.85;;;0.40;;
75427;SDS011;64008;55.612;37.698;2023-03-01T01:43:27;0.82;;;0.22;;
75427;SDS011;64008;55.612;37.698;2023-03-01T01:45:59;1.45;;;0.38;;
75427;SDS011;64008;55.612;37.698;2023-03-01T01:48:32;2.42;;;0.50;;
75427;SDS011;64008;55.612;37.698;2023-03-01T01:51:05;2.58;;;0.50;;
75427;SDS011;64008;55.612;37.698;2023-03-01T01:53:34;1.65;;;0.30;;
75427;SDS011;64008;55.612;37.698;2023-03-01T01:58:27;1.92;;;0.50;;
75427;SDS011;64008;55.612;37.698;2023-03-01T02:00:55;2.40;;;0.25;;
75427;SDS011;64008;55.612;37.698;2023-03-01T02:03:25;2.92;;;0.50;;
75427;SDS011;64008;55.612;37.698;2023-03-01T02:08:23;1.88;;;0.30;;
75427;SDS011;64008;55.612;37.698;2023-03-01T02:10:52;2.60;;;0.40;;
75427;SDS011;64008;55.612;37.698;2023-03-01T02:13:20;1.40;;;0.30;;
75427;SDS011;64008;55.612;37.698;2023-03-01T02:15:45;2.13;;;0.50;;
75427;SDS011;64008;55.612;37.698;2023-03-01T02:18:12;1.58;;;0.45;;
75427;SDS011;64008;55.612;37.698;2023-03-01T02:21:04;1.50;;;0.32;;
75427;SDS011;64008;55.612;37.698;2023-03-01T02:23:38;1.88;;;0.40;;
75427;SDS011;64008;55.612;37.698;2023-03-01T02:28:36;1.30;;;0.28;;
75427;SDS011;64008;55.612;37.698;2023-03-01T02:31:04;1.38;;;0.25;;
75427;SDS011;64008;55.612;37.698;2023-03-01T02:33:49;1.17;;;0.30;;
75427;SDS011;64008;55.612;37.698;2023-03-01T02:36:17;1.35;;;0.30;;
75427;SDS011;64008;55.612;37.698;2023-03-01T02:38:45;2.60;;;0.40;;
75427;SDS011;64008;55.612;37.698;2023-03-01T02:41:13;2.40;;;0.45;;
75427;SDS011;64008;55.612;37.698;2023-03-01T02:43:41;0.77;;;0.30;;
75427;SDS011;64008;55.612;37.698;2023-03-01T02:46:08;0.80;;;0.20;;
75427;SDS011;64008;55.612;37.698;2023-03-01T02:48:43;2.65;;;0.45;;
75427;SDS011;64008;55.612;37.698;2023-03-01T02:54:10;1.63;;;0.30;;
75427;SDS011;64008;55.612;37.698;2023-03-01T02:56:38;1.15;;;0.30;;
75427;SDS011;64008;55.612;37.698;2023-03-01T02:59:04;2.58;;;0.50;;
75427;SDS011;64008;55.612;37.698;2023-03-01T03:01:30;2.88;;;0.38;;
75427;SDS011;64008;55.612;37.698;2023-03-01T03:04:03;2.35;;;0.47;;
75427;SDS011;64008;55.612;37.698;2023-03-01T03:06:34;1.50;;;0.40;;
75427;SDS011;64008;55.612;37.698;2023-03-01T03:09:00;2.35;;;0.50;;
75427;SDS011;64008;55.612;37.698;2023-03-01T03:11:27;3.20;;;0.60;;
75427;SDS011;64008;55.612;37.698;2023-03-01T03:13:52;1.20;;;0.28;;
75427;SDS011;64008;55.612;37.698;2023-03-01T03:16:18;2.45;;;0.40;;
75427;SDS011;64008;55.612;37.698;2023-03-01T03:18:44;2.47;;;0.40;;
75427;SDS011;64008;55.612;37.698;2023-03-01T03:21:11;2.38;;;0.30;;
75427;SDS011;64008;55.612;37.698;2023-03-01T03:23:37;0.68;;;0.20;;
75427;SDS011;64008;55.612;37.698;2023-03-01T03:26:04;1.55;;;0.32;;
75427;SDS011;64008;55.612;37.698;2023-03-01T03:28:31;4.78;;;0.43;;
75427;SDS011;64008;55.612;37.698;2023-03-01T03:30:58;3.53;;;0.43;;
75427;SDS011;64008;55.612;37.698;2023-03-01T03:33:28;1.67;;;0.47;;
75427;SDS011;64008;55.612;37.698;2023-03-01T03:35:54;1.92;;;0.25;;
75427;SDS011;64008;55.612;37.698;2023-03-01T03:38:20;1.95;;;0.43;;
75427;SDS011;64008;55.612;37.698;2023-03-01T03:43:32;2.67;;;0.40;;
75427;SDS011;64008;55.612;37.698;2023-03-01T03:46:00;0.95;;;0.28;;
75427;SDS011;64008;55.612;37.698;2023-03-01T03:48:30;3.25;;;0.40;;
75427;SDS011;64008;55.612;37.698;2023-03-01T03:50:57;1.23;;;0.38;;
75427;SDS011;64008;55.612;37.698;2023-03-01T03:53:24;2.83;;;0.50;;
75427;SDS011;64008;55.612;37.698;2023-03-01T03:55:50;1.77;;;0.40;;
75427;SDS011;64008;55.612;37.698;2023-03-01T03:58:17;1.15;;;0.40;;
75427;SDS011;64008;55.612;37.698;2023-03-01T04:00:45;3.95;;;0.40;;
75427;SDS011;64008;55.612;37.698;2023-03-01T04:03:13;1.85;;;0.50;;
75427;SDS011;64008;55.612;37.698;2023-03-01T04:05:40;1.25;;;0.25;;
75427;SDS011;64008;55.612;37.698;2023-03-01T04:08:07;3.25;;;0.60;;
75427;SDS011;64008;55.612;37.698;2023-03-01T04:10:37;2.05;;;0.30;;
75427;SDS011;64008;55.612;37.698;2023-03-01T04:13:05;1.15;;;0.50;;
75427;SDS011;64008;55.612;37.698;2023-03-01T04:15:32;0.30;;;0.10;;
75427;SDS011;64008;55.612;37.698;2023-03-01T04:17:59;3.13;;;0.50;;
75427;SDS011;64008;55.612;37.698;2023-03-01T04:20:26;3.00;;;0.32;;
75427;SDS011;64008;55.612;37.698;2023-03-01T04:23:01;2.65;;;0.63;;
75427;SDS011;64008;55.612;37.698;2023-03-01T04:25:37;1.73;;;0.28;;
75427;SDS011;64008;55.612;37.698;2023-03-01T04:28:06;2.10;;;0.50;;
75427;SDS011;64008;55.612;37.698;2023-03-01T04:30:33;1.27;;;0.20;;
75427;SDS011;64008;55.612;37.698;2023-03-01T04:33:10;1.55;;;0.40;;
75427;SDS011;64008;55.612;37.698;2023-03-01T04:35:36;2.75;;;0.52;;
75427;SDS011;64008;55.612;37.698;2023-03-01T04:38:03;1.05;;;0.30;;
75427;SDS011;64008;55.612;37.698;2023-03-01T04:40:29;3.47;;;0.50;;
75427;SDS011;64008;55.612;37.698;2023-03-01T04:42:54;3.08;;;0.65;;
75427;SDS011;64008;55.612;37.698;2023-03-01T04:45:20;2.78;;;0.43;;
75427;SDS011;64008;55.612;37.698;2023-03-01T04:47:46;2.40;;;0.38;;
75427;SDS011;64008;55.612;37.698;2023-03-01T04:50:12;1.55;;;0.40;;
75427;SDS011;64008;55.612;37.698;2023-03-01T04:52:40;2.38;;;0.55;;
75427;SDS011;64008;55.612;37.698;2023-03-01T04:55:06;1.42;;;0.40;;
75427;SDS011;64008;55.612;37.698;2023-03-01T04:57:32;3.47;;;0.70;;
75427;SDS011;64008;55.612;37.698;2023-03-01T04:59:58;2.95;;;0.68;;
75427;SDS011;64008;55.612;37.698;2023-03-01T05:02:24;1.67;;;0.40;;
75427;SDS011;64008;55.612;37.698;2023-03-01T05:04:49;1.95;;;0.45;;
75427;SDS011;64008;55.612;37.698;2023-03-01T05:07:15;3.10;;;0.52;;
75427;SDS011;64008;55.612;37.698;2023-03-01T05:09:45;1.45;;;0.40;;
75427;SDS011;64008;55.612;37.698;2023-03-01T05:12:11;2.20;;;0.35;;
75427;SDS011;64008;55.612;37.698;2023-03-01T05:14:38;1.85;;;0.45;;
75427;SDS011;64008;55.612;37.698;2023-03-01T05:17:04;1.73;;;0.60;;
75427;SDS011;64008;55.612;37.698;2023-03-01T05:19:30;1.63;;;0.38;;
75427;SDS011;64008;55.612;37.698;2023-03-01T05:21:56;2.53;;;0.75;;
75427;SDS011;64008;55.612;37.698;2023-03-01T05:24:32;1.50;;;0.32;;
75427;SDS011;64008;55.612;37.698;2023-03-01T05:27:00;2.47;;;0.55;;
75427;SDS011;64008;55.612;37.698;2023-03-01T05:31:53;3.20;;;0.52;;
75427;SDS011;64008;55.612;37.698;2023-03-01T05:34:30;2.55;;;0.50;;
75427;SDS011;64008;55.612;37.698;2023-03-01T05:36:57;1.70;;;0.50;;
75427;SDS011;64008;55.612;37.698;2023-03-01T05:39:23;4.90;;;0.40;;
75427;SDS011;64008;55.612;37.698;2023-03-01T05:41:54;2.90;;;0.57;;
75427;SDS011;64008;55.612;37.698;2023-03-01T05:44:21;2.13;;;0.63;;
75427;SDS011;64008;55.612;37.698;2023-03-01T05:46:46;2.25;;;0.60;;
75427;SDS011;64008;55.612;37.698;2023-03-01T05:49:12;2.45;;;0.50;;
75427;SDS011;64008;55.612;37.698;2023-03-01T05:51:40;1.50;;;0.70;;
75427;SDS011;64008;55.612;37.698;2023-03-01T05:56:35;1.33;;;0.40;;
75427;SDS011;64008;55.612;37.698;2023-03-01T05:59:01;2.40;;;0.60;;
75427;SDS011;64008;55.612;37.698;2023-03-01T06:01:28;1.50;;;0.38;;
75427;SDS011;64008;55.612;37.698;2023-03-01T06:03:54;1.95;;;0.57;;
75427;SDS011;64008;55.612;37.698;2023-03-01T06:06:21;2.00;;;0.60;;
75427;SDS011;64008;55.612;37.698;2023-03-01T06:08:47;1.88;;;0.50;;
75427;SDS011;64008;55.612;37.698;2023-03-01T06:11:13;2.80;;;0.70;;
75427;SDS011;64008;55.612;37.698;2023-03-01T06:13:38;1.83;;;0.40;;
75427;SDS011;64008;55.612;37.698;2023-03-01T06:16:07;2.35;;;0.55;;
75427;SDS011;64008;55.612;37.698;2023-03-01T06:18:33;5.43;;;0.80;;
75427;SDS011;64008;55.612;37.698;2023-03-01T06:20:58;2.80;;;0.60;;
75427;SDS011;64008;55.612;37.698;2023-03-01T06:23:24;2.65;;;0.60;;
75427;SDS011;64008;55.612;37.698;2023-03-01T06:25:50;3.28;;;1.00;;
75427;SDS011;64008;55.612;37.698;2023-03-01T06:28:16;3.30;;;0.70;;
75427;SDS011;64008;55.612;37.698;2023-03-01T06:30:41;6.18;;;0.65;;
75427;SDS011;64008;55.612;37.698;2023-03-01T06:33:07;3.63;;;0.85;;
75427;SDS011;64008;55.612;37.698;2023-03-01T06:35:33;5.47;;;0.80;;
75427;SDS011;64008;55.612;37.698;2023-03-01T06:38:00;3.58;;;0.70;;
75427;SDS011;64008;55.612;37.698;2023-03-01T06:40:26;3.88;;;0.82;;
75427;SDS011;64008;55.612;37.698;2023-03-01T06:42:52;7.10;;;1.02;;
75427;SDS011;64008;55.612;37.698;2023-03-01T06:45:18;5.32;;;0.82;;
75427;SDS011;64008;55.612;37.698;2023-03-01T06:50:10;4.22;;;0.70;;
75427;SDS011;64008;55.612;37.698;2023-03-01T06:52:36;6.80;;;1.80;;
75427;SDS011;64008;55.612;37.698;2023-03-01T06:55:02;8.85;;;0.90;;
75427;SDS011;64008;55.612;37.698;2023-03-01T06:57:28;6.88;;;1.40;;
75427;SDS011;64008;55.612;37.698;2023-03-01T06:59:54;5.47;;;1.13;;
75427;SDS011;64008;55.612;37.698;2023-03-01T07:02:20;7.93;;;1.30;;
75427;SDS011;64008;55.612;37.698;2023-03-01T07:04:46;7.88;;;1.40;;
75427;SDS011;64008;55.612;37.698;2023-03-01T07:07:11;4.57;;;1.08;;
75427;SDS011;64008;55.612;37.698;2023-03-01T07:09:37;3.80;;;0.90;;
75427;SDS011;64008;55.612;37.698;2023-03-01T07:12:02;3.75;;;1.10;;
75427;SDS011;64008;55.612;37.698;2023-03-01T07:14:28;6.82;;;1.00;;
75427;SDS011;64008;55.612;37.698;2023-03-01T07:16:54;4.68;;;0.75;;
75427;SDS011;64008;55.612;37.698;2023-03-01T07:19:20;6.47;;;1.10;;
75427;SDS011;64008;55.612;37.698;2023-03-01T07:21:46;5.05;;;0.95;;
75427;SDS011;64008;55.612;37.698;2023-03-01T07:24:11;3.65;;;0.60;;
75427;SDS011;64008;55.612;37.698;2023-03-01T07:26:37;2.85;;;0.75;;
75427;SDS011;64008;55.612;37.698;2023-03-01T07:29:03;2.60;;;0.70;;
75427;SDS011;64008;55.612;37.698;2023-03-01T07:31:30;5.68;;;0.80;;
75427;SDS011;64008;55.612;37.698;2023-03-01T07:33:56;5.47;;;0.70;;
75427;SDS011;64008;55.612;37.698;2023-03-01T07:36:21;3.88;;;0.80;;
75427;SDS011;64008;55.612;37.698;2023-03-01T07:38:47;1.55;;;0.50;;
75427;SDS011;64008;55.612;37.698;2023-03-01T07:41:13;3.88;;;0.90;;
75427;SDS011;64008;55.612;37.698;2023-03-01T07:43:39;2.33;;;0.50;;
75427;SDS011;64008;55.612;37.698;2023-03-01T07:46:04;2.70;;;0.70;;
75427;SDS011;64008;55.612;37.698;2023-03-01T07:48:31;4.43;;;0.70;;
75427;SDS011;64008;55.612;37.698;2023-03-01T07:50:58;5.47;;;0.88;;
75427;SDS011;64008;55.612;37.698;2023-03-01T07:53:28;4.35;;;0.60;;
75427;SDS011;64008;55.612;37.698;2023-03-01T07:58:33;2.75;;;0.60;;
75427;SDS011;64008;55.612;37.698;2023-03-01T08:01:07;6.40;;;1.27;;
75427;SDS011;64008;55.612;37.698;2023-03-01T08:03:35;2.67;;;0.70;;
75427;SDS011;64008;55.612;37.698;2023-03-01T08:06:02;4.88;;;0.52;;
75427;SDS011;64008;55.612;37.698;2023-03-01T08:08:29;2.20;;;0.60;;
75427;SDS011;64008;55.612;37.698;2023-03-01T08:10:59;3.35;;;0.70;;
75427;SDS011;64008;55.612;37.698;2023-03-01T08:13:26;3.47;;;0.70;;
75427;SDS011;64008;55.612;37.698;2023-03-01T08:18:18;3.20;;;0.70;;
75427;SDS011;64008;55.612;37.698;2023-03-01T08:20:44;4.03;;;0.63;;
75427;SDS011;64008;55.612;37.698;2023-03-01T08:23:10;1.88;;;0.57;;
75427;SDS011;64008;55.612;37.698;2023-03-01T08:25:36;2.83;;;0.50;;
75427;SDS011;64008;55.612;37.698;2023-03-01T08:28:02;4.65;;;0.60;;
75427;SDS011;64008;55.612;37.698;2023-03-01T08:32:55;3.23;;;0.87;;
75427;SDS011;64008;55.612;37.698;2023-03-01T08:35:20;4.35;;;0.70;;
75427;SDS011;64008;55.612;37.698;2023-03-01T08:37:46;2.85;;;0.77;;
75427;SDS011;64008;55.612;37.698;2023-03-01T08:40:13;8.40;;;1.17;;
75427;SDS011;64008;55.612;37.698;2023-03-01T08:42:39;6.47;;;1.10;;
75427;SDS011;64008;55.612;37.698;2023-03-01T08:45:06;3.53;;;0.85;;
75427;SDS011;64008;55.612;37.698;2023-03-01T08:47:32;2.97;;;0.63;;
75427;SDS011;64008;55.612;37.698;2023-03-01T08:49:58;5.30;;;1.00;;
75427;SDS011;64008;55.612;37.698;2023-03-01T08:52:24;4.05;;;0.85;;
75427;SDS011;64008;55.612;37.698;2023-03-01T08:54:51;3.63;;;0.73;;
75427;SDS011;64008;55.612;37.698;2023-03-01T08:57:17;3.95;;;1.08;;
75427;SDS011;64008;55.612;37.698;2023-03-01T08:59:42;6.57;;;0.70;;
75427;SDS011;64008;55.612;37.698;2023-03-01T09:02:12;2.45;;;0.75;;
75427;SDS011;64008;55.612;37.698;2023-03-01T09:04:39;6.80;;;0.95;;
75427;SDS011;64008;55.612;37.698;2023-03-01T09:07:05;2.65;;;0.68;;
75427;SDS011;64008;55.612;37.698;2023-03-01T09:09:30;3.53;;;0.82;;
75427;SDS011;64008;55.612;37.698;2023-03-01T09:11:56;3.17;;;0.90;;
75427;SDS011;64008;55.612;37.698;2023-03-01T09:14:22;2.17;;;0.60;;
75427;SDS011;64008;55.612;37.698;2023-03-01T09:16:47;2.45;;;0.65;;
75427;SDS011;64008;55.612;37.698;2023-03-01T09:19:13;2.03;;;0.45;;
75427;SDS011;64008;55.612;37.698;2023-03-01T09:21:39;2.95;;;0.70;;
75427;SDS011;64008;55.612;37.698;2023-03-01T09:24:05;2.33;;;0.70;;
75427;SDS011;64008;55.612;37.698;2023-03-01T09:26:36;4.35;;;0.82;;
75427;SDS011;64008;55.612;37.698;2023-03-01T09:29:01;5.32;;;1.10;;
75427;SDS011;64008;55.612;37.698;2023-03-01T09:31:27;4.45;;;0.70;;
75427;SDS011;64008;55.612;37.698;2023-03-01T09:33:53;3.83;;;0.75;;
75427;SDS011;64008;55.612;37.698;2023-03-01T09:38:46;3.33;;;0.70;;
75427;SDS011;64008;55.612;37.698;2023-03-01T09:44:00;4.72;;;0.80;;
75427;SDS011;64008;55.612;37.698;2023-03-01T09:46:30;3.65;;;0.65;;
75427;SDS011;64008;55.612;37.698;2023-03-01T09:49:10;3.08;;;0.80;;
75427;SDS011;64008;55.612;37.698;2023-03-01T09:51:39;2.78;;;0.55;;
75427;SDS011;64008;55.612;37.698;2023-03-01T09:54:05;3.30;;;0.63;;
75427;SDS011;64008;55.612;37.698;2023-03-01T09:56:34;3.80;;;0.70;;
75427;SDS011;64008;55.612;37.698;2023-03-01T10:09:32;2.35;;;0.73;;
75427;SDS011;64008;55.612;37.698;2023-03-01T10:11:59;3.97;;;0.90;;
75427;SDS011;64008;55.612;37.698;2023-03-01T10:17:01;3.88;;;0.75;;
75427;SDS011;64008;55.612;37.698;2023-03-01T10:22:18;3.35;;;0.60;;
75427;SDS011;64008;55.612;37.698;2023-03-01T10:24:46;3.55;;;0.85;;
75427;SDS011;64008;55.612;37.698;2023-03-01T10:32:33;3.90;;;0.95;;
75427;SDS011;64008;55.612;37.698;2023-03-01T10:34:59;2.92;;;0.90;;
75427;SDS011;64008;55.612;37.698;2023-03-01T10:37:24;2.70;;;0.70;;
75427;SDS011;64008;55.612;37.698;2023-03-01T10:39:56;3.08;;;0.80;;
75427;SDS011;64008;55.612;37.698;2023-03-01T10:42:38;2.20;;;0.70;;
75427;SDS011;64008;55.612;37.698;2023-03-01T10:48:06;2.40;;;0.80;;
75427;SDS011;64008;55.612;37.698;2023-03-01T10:50:50;3.70;;;0.80;;
75427;SDS011;64008;55.612;37.698;2023-03-01T10:53:32;4.35;;;1.17;;
75427;SDS011;64008;55.612;37.698;2023-03-01T10:56:10;2.15;;;0.70;;
75427;SDS011;64008;55.612;37.698;2023-03-01T10:58:41;4.43;;;0.70;;
75427;SDS011;64008;55.612;37.698;2023-03-01T11:04:03;3.38;;;0.80;;
75427;SDS011;64008;55.612;37.698;2023-03-01T11:06:32;5.40;;;0.80;;
75427;SDS011;64008;55.612;37.698;2023-03-01T11:09:13;5.38;;;1.02;;
75427;SDS011;64008;55.612;37.698;2023-03-01T11:11:38;3.35;;;0.68;;
75427;SDS011;64008;55.612;37.698;2023-03-01T11:14:13;3.08;;;0.60;;
75427;SDS011;64008;55.612;37.698;2023-03-01T11:16:43;2.67;;;0.50;;
75427;SDS011;64008;55.612;37.698;2023-03-01T11:21:37;1.88;;;0.50;;
75427;SDS011;64008;55.612;37.698;2023-03-01T11:24:06;4.55;;;0.80;;
75427;SDS011;64008;55.612;37.698;2023-03-01T11:26:39;3.13;;;0.90;;
75427;SDS011;64008;55.612;37.698;2023-03-01T11:29:12;2.47;;;0.88;;
75427;SDS011;64008;55.612;37.698;2023-03-01T11:32:08;3.88;;;0.50;;
75427;SDS011;64008;55.612;37.698;2023-03-01T11:34:56;3.35;;;0.60;;
75427;SDS011;64008;55.612;37.698;2023-03-01T11:37:30;1.83;;;0.47;;
75427;SDS011;64008;55.612;37.698;2023-03-01T11:43:23;1.33;;;0.40;;
75427;SDS011;64008;55.612;37.698;2023-03-01T11:50:53;1.23;;;0.40;;
75427;SDS011;64008;55.612;37.698;2023-03-01T11:56:25;1.17;;;0.32;;
75427;SDS011;64008;55.612;37.698;2023-03-01T11:58:57;2.15;;;0.50;;
75427;SDS011;64008;55.612;37.698;2023-03-01T12:21:35;2.08;;;0.50;;
75427;SDS011;64008;55.612;37.698;2023-03-01T12:27:16;2.58;;;0.73;;
75427;SDS011;64008;55.612;37.698;2023-03-01T12:33:07;4.43;;;0.40;;
75427;SDS011;64008;55.612;37.698;2023-03-01T12:46:52;3.08;;;0.60;;
75427;SDS011;64008;55.612;37.698;2023-03-01T12:49:22;2.35;;;0.65;;
75427;SDS011;64008;55.612;37.698;2023-03-01T12:51:57;2.00;;;0.38;;
75427;SDS011;64008;55.612;37.698;2023-03-01T12:54:28;2.38;;;0.40;;
75427;SDS011;64008;55.612;37.698;2023-03-01T12:56:56;1.02;;;0.45;;
75427;SDS011;64008;55.612;37.698;2023-03-01T13:09:48;1.88;;;0.32;;
75427;SDS011;64008;55.612;37.698;2023-03-01T13:15:47;1.33;;;0.38;;
75427;SDS011;64008;55.612;37.698;2023-03-01T13:20:48;1.00;;;0.38;;
75427;SDS011;64008;55.612;37.698;2023-03-01T13:33:46;1.92;;;0.60;;
75427;SDS011;64008;55.612;37.698;2023-03-01T13:42:25;1.23;;;0.30;;
75427;SDS011;64008;55.612;37.698;2023-03-01T13:46:48;2.58;;;0.40;;
75427;SDS011;64008;55.612;37.698;2023-03-01T13:49:46;2.95;;;0.50;;
75427;SDS011;64008;55.612;37.698;2023-03-01T13:54:50;0.95;;;0.30;;
75427;SDS011;64008;55.612;37.698;2023-03-01T13:57:18;3.63;;;0.57;;
75427;SDS011;64008;55.612;37.698;2023-03-01T13:59:47;0.65;;;0.40;;
75427;SDS011;64008;55.612;37.698;2023-03-01T14:02:13;1.95;;;0.60;;
75427;SDS011;64008;55.612;37.698;2023-03-01T14:04:40;2.47;;;0.50;;
75427;SDS011;64008;55.612;37.698;2023-03-01T14:09:47;2.38;;;0.40;;
75427;SDS011;64008;55.612;37.698;2023-03-01T14:12:21;2.13;;;0.43;;
75427;SDS011;64008;55.612;37.698;2023-03-01T14:18:04;1.95;;;0.20;;
75427;SDS011;64008;55.612;37.698;2023-03-01T14:20:38;1.40;;;0.40;;
75427;SDS011;64008;55.612;37.698;2023-03-01T14:23:13;0.95;;;0.30;;
75427;SDS011;64008;55.612;37.698;2023-03-01T14:26:00;0.55;;;0.17;;
75427;SDS011;64008;55.612;37.698;2023-03-01T14:28:30;0.15;;;0.10;;
75427;SDS011;64008;55.612;37.698;2023-03-01T14:31:02;0.80;;;0.30;;
75427;SDS011;64008;55.612;37.698;2023-03-01T14:36:02;7.78;;;2.00;;
75427;SDS011;64008;55.612;37.698;2023-03-01T14:38:31;2.28;;;0.95;;
75427;SDS011;64008;55.612;37.698;2023-03-01T14:41:03;0.75;;;0.30;;
75427;SDS011;64008;55.612;37.698;2023-03-01T14:43:47;1.27;;;0.50;;
75427;SDS011;64008;55.612;37.698;2023-03-01T14:46:21;1.98;;;0.68;;
75427;SDS011;64008;55.612;37.698;2023-03-01T14:48:51;1.15;;;0.40;;
75427;SDS011;64008;55.612;37.698;2023-03-01T14:51:19;1.75;;;0.50;;
75427;SDS011;64008;55.612;37.698;2023-03-01T14:53:45;3.03;;;0.60;;
75427;SDS011;64008;55.612;37.698;2023-03-01T14:56:12;2.40;;;0.50;;
75427;SDS011;64008;55.612;37.698;2023-03-01T14:58:39;1.35;;;0.32;;
75427;SDS011;64008;55.612;37.698;2023-03-01T15:01:04;1.70;;;0.45;;
75427;SDS011;64008;55.612;37.698;2023-03-01T15:03:45;3.35;;;0.70;;
75427;SDS011;64008;55.612;37.698;2023-03-01T15:06:17;2.67;;;0.60;;
75427;SDS011;64008;55.612;37.698;2023-03-01T15:08:49;2.75;;;0.50;;
75427;SDS011;64008;55.612;37.698;2023-03-01T15:11:26;1.65;;;0.40;;
75427;SDS011;64008;55.612;37.698;2023-03-01T15:13:54;2.55;;;0.35;;
75427;SDS011;64008;55.612;37.698;2023-03-01T15:16:29;2.55;;;0.73;;
75427;SDS011;64008;55.612;37.698;2023-03-01T15:18:57;2.00;;;0.40;;
75427;SDS011;64008;55.612;37.698;2023-03-01T15:21:27;1.75;;;0.52;;
75427;SDS011;64008;55.612;37.698;2023-03-01T15:24:04;2.10;;;0.50;;
75427;SDS011;64008;55.612;37.698;2023-03-01T15:26:31;2.40;;;0.65;;
75427;SDS011;64008;55.612;37.698;2023-03-01T15:29:02;2.45;;;0.43;;
75427;SDS011;64008;55.612;37.698;2023-03-01T15:31:28;1.77;;;0.50;;
75427;SDS011;64008;55.612;37.698;2023-03-01T15:36:49;1.15;;;0.30;;
75427;SDS011;64008;55.612;37.698;2023-03-01T15:39:25;2.30;;;0.47;;
75427;SDS011;64008;55.612;37.698;2023-03-01T15:45:07;2.35;;;0.55;;
75427;SDS011;64008;55.612;37.698;2023-03-01T15:48:06;2.42;;;0.57;;
75427;SDS011;64008;55.612;37.698;2023-03-01T15:50:53;4.32;;;0.60;;
75427;SDS011;64008;55.612;37.698;2023-03-01T15:53:20;2.05;;;0.65;;
75427;SDS011;64008;55.612;37.698;2023-03-01T15:55:45;3.10;;;0.60;;
75427;SDS011;64008;55.612;37.698;2023-03-01T15:58:21;1.00;;;0.30;;
75427;SDS011;64008;55.612;37.698;2023-03-01T16:00:49;1.48;;;0.40;;
75427;SDS011;64008;55.612;37.698;2023-03-01T16:03:20;1.05;;;0.40;;
75427;SDS011;64008;55.612;37.698;2023-03-01T16:05:47;2.45;;;0.60;;
75427;SDS011;64008;55.612;37.698;2023-03-01T16:08:14;2.58;;;0.52;;
75427;SDS011;64008;55.612;37.698;2023-03-01T16:10:40;2.03;;;0.60;;
75427;SDS011;64008;55.612;37.698;2023-03-01T16:13:09;3.60;;;0.60;;
75427;SDS011;64008;55.612;37.698;2023-03-01T16:15:35;1.58;;;0.43;;
75427;SDS011;64008;55.612;37.698;2023-03-01T16:18:01;1.20;;;0.40;;
75427;SDS011;64008;55.612;37.698;2023-03-01T16:20:27;2.15;;;0.57;;
75427;SDS011;64008;55.612;37.698;2023-03-01T16:22:54;3.40;;;0.68;;
75427;SDS011;64008;55.612;37.698;2023-03-01T16:25:22;1.80;;;0.50;;
75427;SDS011;64008;55.612;37.698;2023-03-01T16:27:49;1.20;;;0.30;;
75427;SDS011;64008;55.612;37.698;2023-03-01T16:32:42;1.80;;;0.40;;
75427;SDS011;64008;55.612;37.698;2023-03-01T16:35:09;3.15;;;0.43;;
75427;SDS011;64008;55.612;37.698;2023-03-01T16:37:36;0.63;;;0.25;;
75427;SDS011;64008;55.612;37.698;2023-03-01T16:40:02;2.75;;;0.35;;
75427;SDS011;64008;55.612;37.698;2023-03-01T16:42:35;1.98;;;0.47;;
75427;SDS011;64008;55.612;37.698;2023-03-01T16:45:01;2.97;;;0.80;;
75427;SDS011;64008;55.612;37.698;2023-03-01T16:47:27;1.95;;;0.40;;
75427;SDS011;64008;55.612;37.698;2023-03-01T16:49:53;8.10;;;1.30;;
75427;SDS011;64008;55.612;37.698;2023-03-01T16:52:20;19.98;;;3.25;;
75427;SDS011;64008;55.612;37.698;2023-03-01T16:54:46;25.33;;;5.20;;
75427;SDS011;64008;55.612;37.698;2023-03-01T16:57:12;30.70;;;6.32;;
75427;SDS011;64008;55.612;37.698;2023-03-01T16:59:37;37.25;;;5.85;;
75427;SDS011;64008;55.612;37.698;2023-03-01T17:02:03;42.17;;;8.18;;
75427;SDS011;64008;55.612;37.698;2023-03-01T17:04:30;23.23;;;5.78;;
75427;SDS011;64008;55.612;37.698;2023-03-01T17:06:56;24.60;;;4.80;;
75427;SDS011;64008;55.612;37.698;2023-03-01T17:09:22;21.58;;;4.07;;
75427;SDS011;64008;55.612;37.698;2023-03-01T17:11:48;17.00;;;4.65;;
75427;SDS011;64008;55.612;37.698;2023-03-01T17:14:14;25.33;;;5.50;;
75427;SDS011;64008;55.612;37.698;2023-03-01T17:19:07;23.33;;;6.20;;
75427;SDS011;64008;55.612;37.698;2023-03-01T17:21:33;19.17;;;4.68;;
75427;SDS011;64008;55.612;37.698;2023-03-01T17:23:58;24.30;;;5.50;;
75427;SDS011;64008;55.612;37.698;2023-03-01T17:26:24;26.38;;;6.22;;
75427;SDS011;64008;55.612;37.698;2023-03-01T17:28:50;19.60;;;4.55;;
75427;SDS011;64008;55.612;37.698;2023-03-01T17:31:16;24.27;;;4.55;;